Time;durP1;ratioP1;P1;durP2;ratioP2;P2;SDS_P1;SDS_P2;PMS_P1;PMS_P2;Temp;Humidity;BMP_temperature;BMP_pressure;BME280_temperature;BME280_humidity;BME280_pressure;Samples;Min_cycle;Max_cycle;Signal;HPM_P1;HPM_P2
2023/06/30 00:02:42;;;;;;;13.70;9.40;;;;;;;15.18;99.54;98760.69;273458;1268;23203;-86
2023/06/30 00:08:48;;;;;;;19.00;10.00;;;;;;;15.03;99.59;98760.70;273909;1257;22338;-86
2023/06/30 00:14:49;;;;;;;12.60;9.50;;;;;;;14.96;99.98;98764.79;272777;1268;22556;-83
2023/06/30 00:20:54;;;;;;;12.00;10.40;;;;;;;14.99;100.00;98758.20;271154;1268;22148;-84
2023/06/30 00:26:59;;;;;;;11.30;9.50;;;;;;;14.99;100.00;98753.95;273246;1258;22206;-86
2023/06/30 00:33:14;;;;;;;14.10;9.00;;;;;;;14.96;100.00;98753.84;272547;1268;24082;-86
2023/06/30 00:39:23;;;;;;;10.60;8.60;;;;;;;14.89;100.00;98748.00;271639;1267;22259;-86
2023/06/30 00:45:25;;;;;;;17.70;9.90;;;;;;;14.85;100.00;98744.98;273657;1267;22374;-86
2023/06/30 00:51:26;;;;;;;10.60;9.30;;;;;;;14.83;100.00;98737.43;270827;1268;25236;-86
2023/06/30 00:57:28;;;;;;;13.20;9.90;;;;;;;14.78;100.00;98737.87;269416;1267;25398;-86
2023/06/30 01:03:42;;;;;;;13.10;10.40;;;;;;;14.71;100.00;98728.96;270705;1268;23319;-86
2023/06/30 01:09:52;;;;;;;16.10;9.70;;;;;;;14.59;100.00;98718.92;271666;1255;23050;-86
2023/06/30 01:16:20;;;;;;;12.70;9.80;;;;;;;14.50;100.00;98715.79;272122;1267;23793;-86
2023/06/30 01:22:39;;;;;;;13.80;9.80;;;;;;;14.45;100.00;98714.89;270939;1256;22363;-87
2023/06/30 01:28:41;;;;;;;12.70;9.60;;;;;;;14.41;100.00;98711.30;274121;1275;22189;-86
2023/06/30 01:34:56;;;;;;;14.50;8.00;;;;;;;14.36;100.00;98702.30;271568;1268;22558;-86
2023/06/30 01:40:58;;;;;;;10.10;8.40;;;;;;;14.26;100.00;98705.11;271014;1267;23060;-86
2023/06/30 01:47:01;;;;;;;10.80;8.60;;;;;;;14.02;100.00;98706.63;271926;1269;22871;-87
2023/06/30 01:53:04;;;;;;;12.00;9.10;;;;;;;13.97;100.00;98705.73;273679;1258;22191;-85
2023/06/30 01:59:05;;;;;;;12.90;9.80;;;;;;;13.95;100.00;98703.13;273602;1269;23410;-86
2023/06/30 02:05:07;;;;;;;15.10;9.20;;;;;;;13.88;100.00;98705.08;271709;1268;22561;-86
2023/06/30 02:11:14;;;;;;;13.20;8.70;;;;;;;13.82;100.00;98707.33;272065;1260;22201;-85
2023/06/30 02:17:16;;;;;;;12.90;9.50;;;;;;;13.77;100.00;98706.88;272339;1268;22185;-86
2023/06/30 02:23:20;;;;;;;14.60;10.40;;;;;;;13.75;100.00;98708.62;273690;1269;22666;-86
2023/06/30 02:29:22;;;;;;;13.70;8.80;;;;;;;13.67;100.00;98704.11;273326;1269;22252;-86
2023/06/30 02:35:24;;;;;;;15.10;10.10;;;;;;;13.59;100.00;98703.22;273398;1257;22546;-85
2023/06/30 02:41:29;;;;;;;13.00;10.00;;;;;;;13.51;100.00;98699.34;270334;1266;24038;-86
2023/06/30 02:47:32;;;;;;;11.70;8.70;;;;;;;13.47;100.00;98699.98;271008;1258;22338;-87
2023/06/30 02:53:34;;;;;;;10.90;9.10;;;;;;;13.50;100.00;98700.52;272007;1260;22368;-87
2023/06/30 02:59:42;;;;;;;14.50;10.90;;;;;;;13.51;100.00;98697.61;273459;1259;23528;-86
2023/06/30 03:05:45;;;;;;;11.60;9.20;;;;;;;13.50;100.00;98700.27;273342;1269;23863;-87
2023/06/30 03:11:48;;;;;;;12.90;9.40;;;;;;;13.49;100.00;98700.44;271850;1268;22206;-86
2023/06/30 03:18:15;;;;;;;11.60;8.20;;;;;;;13.56;100.00;98703.08;272896;1266;22217;-86
2023/06/30 03:24:26;;;;;;;11.60;8.70;;;;;;;13.64;100.00;98701.85;270810;1258;23075;-87
2023/06/30 03:30:53;;;;;;;10.40;8.00;;;;;;;13.72;100.00;98692.68;270522;1268;26204;-86
2023/06/30 03:36:55;;;;;;;8.80;7.90;;;;;;;13.77;100.00;98686.52;269754;1267;25819;-86
2023/06/30 03:42:57;;;;;;;15.10;8.20;;;;;;;13.85;100.00;98683.95;270454;1258;22503;-86
2023/06/30 03:49:36;;;;;;;12.10;8.50;;;;;;;13.97;100.00;98684.33;270225;1265;23463;-85
2023/06/30 03:56:29;;;;;;;11.00;8.30;;;;;;;14.11;100.00;98681.17;272365;1269;22461;-86
2023/06/30 04:09:48;;;;;;;11.70;8.10;;;;;;;14.39;100.00;98680.48;273158;1259;22547;-87
2023/06/30 04:15:51;;;;;;;12.60;8.60;;;;;;;14.53;100.00;98674.92;273897;1275;22207;-86
2023/06/30 04:22:35;;;;;;;11.40;8.40;;;;;;;14.68;100.00;98676.89;272964;1269;22412;-86
2023/06/30 04:28:38;;;;;;;12.00;7.90;;;;;;;14.83;100.00;98682.09;272688;1268;22167;-86
2023/06/30 04:34:39;;;;;;;9.70;8.30;;;;;;;14.95;100.00;98676.83;272999;1269;22527;-86
2023/06/30 04:41:12;;;;;;;9.60;8.10;;;;;;;15.11;100.00;98673.33;273778;1256;22875;-87
2023/06/30 04:47:49;;;;;;;11.90;7.70;;;;;;;15.28;100.00;98671.87;272810;1281;22657;-87
2023/06/30 04:54:30;;;;;;;12.10;7.70;;;;;;;15.41;100.00;98671.25;272336;1277;23064;-86
2023/06/30 05:00:37;;;;;;;11.70;8.20;;;;;;;15.53;100.00;98671.16;271054;1270;22393;-86
2023/06/30 05:07:35;;;;;;;9.80;7.50;;;;;;;15.68;100.00;98670.16;273512;1262;22921;-87
2023/06/30 05:13:38;;;;;;;9.70;8.00;;;;;;;15.89;100.00;98665.98;273955;1269;22396;-86
2023/06/30 05:19:42;;;;;;;9.20;7.00;;;;;;;16.10;100.00;98664.46;273970;1268;22254;-86
2023/06/30 05:26:06;;;;;;;9.70;6.50;;;;;;;16.31;100.00;98665.14;273772;1264;22464;-86
2023/06/30 05:32:08;;;;;;;8.10;6.60;;;;;;;16.58;100.00;98661.20;274015;1268;22398;-86
2023/06/30 05:38:13;;;;;;;8.80;6.50;;;;;;;16.89;100.00;98654.61;272848;1268;22567;-86
2023/06/30 05:44:40;;;;;;;9.50;6.20;;;;;;;17.21;100.00;98650.00;272514;1268;23130;-86
2023/06/30 05:50:42;;;;;;;9.30;6.20;;;;;;;17.51;100.00;98651.38;270716;1258;22210;-86
2023/06/30 05:56:45;;;;;;;7.10;5.30;;;;;;;17.79;100.00;98652.89;270572;1267;22543;-86
2023/06/30 06:02:46;;;;;;;7.60;5.50;;;;;;;18.04;100.00;98649.42;269699;1267;22536;-86
2023/06/30 06:08:48;;;;;;;5.00;4.20;;;;;;;18.30;100.00;98646.89;269867;1266;583336;-88
2023/06/30 06:14:50;;;;;;;5.20;4.60;;;;;;;18.63;100.00;98648.34;270419;1268;23211;-88
2023/06/30 06:20:52;;;;;;;7.20;4.50;;;;;;;19.02;100.00;98643.85;272362;1259;22590;-88
2023/06/30 06:26:54;;;;;;;5.00;4.20;;;;;;;19.38;100.00;98642.98;271607;1267;22536;-87
2023/06/30 06:32:55;;;;;;;4.80;3.50;;;;;;;19.77;99.90;98644.09;270588;1268;25516;-87
2023/06/30 06:38:57;;;;;;;4.70;4.00;;;;;;;20.08;98.93;98650.27;269648;1268;22537;-88
2023/06/30 06:44:59;;;;;;;6.60;3.60;;;;;;;20.29;97.63;98646.66;269901;1266;22548;-88
2023/06/30 06:51:03;;;;;;;4.30;3.90;;;;;;;20.51;96.93;98641.98;270038;1268;26469;-88
2023/06/30 06:57:05;;;;;;;4.70;3.30;;;;;;;20.88;96.08;98638.45;273271;1267;23722;-88
2023/06/30 07:03:07;;;;;;;4.40;3.20;;;;;;;21.34;95.35;98635.02;273408;1270;22210;-89
2023/06/30 07:09:08;;;;;;;4.40;2.60;;;;;;;21.93;93.91;98639.26;273640;1269;23132;-87
2023/06/30 07:15:10;;;;;;;4.00;2.70;;;;;;;22.58;91.08;98643.10;273263;1269;22337;-87
2023/06/30 07:21:12;;;;;;;5.20;2.50;;;;;;;23.29;88.69;98636.70;273406;1268;22481;-87
2023/06/30 07:27:14;;;;;;;4.00;2.40;;;;;;;23.98;86.47;98633.94;273362;1254;22444;-87
2023/06/30 07:33:17;;;;;;;4.10;2.50;;;;;;;24.30;82.64;98633.04;273519;1268;22358;-88
2023/06/30 07:39:19;;;;;;;6.10;2.20;;;;;;;24.49;80.88;98628.82;273003;1268;22602;-88
2023/06/30 07:45:21;;;;;;;3.50;2.30;;;;;;;24.69;79.55;98617.40;273660;1260;23143;-88
2023/06/30 07:51:22;;;;;;;5.50;2.10;;;;;;;24.93;78.60;98606.52;273144;1268;22478;-88
2023/06/30 07:57:26;;;;;;;3.40;2.10;;;;;;;25.10;77.39;98606.64;273469;1268;22208;-88
2023/06/30 08:03:27;;;;;;;2.40;2.10;;;;;;;25.03;74.84;98602.27;273364;1268;22367;-87
2023/06/30 08:09:29;;;;;;;4.00;1.90;;;;;;;25.04;74.24;98599.69;273237;1269;22173;-88
2023/06/30 08:15:31;;;;;;;5.10;2.00;;;;;;;25.16;72.85;98595.43;273284;1269;22923;-85
2023/06/30 08:21:39;;;;;;;6.50;2.20;;;;;;;25.26;71.60;98594.60;271794;1268;22531;-88
2023/06/30 08:27:43;;;;;;;4.50;2.00;;;;;;;25.31;69.68;98592.85;272113;1269;22906;-86
2023/06/30 08:33:44;;;;;;;2.20;1.80;;;;;;;25.43;68.75;98591.56;272661;1269;22270;-87
2023/06/30 08:39:49;;;;;;;2.80;1.70;;;;;;;25.51;67.78;98589.91;273322;1269;22800;-87
2023/06/30 08:45:53;;;;;;;2.50;1.80;;;;;;;25.58;66.90;98580.30;273386;1269;22393;-86
2023/06/30 08:51:59;;;;;;;2.00;1.70;;;;;;;25.62;66.22;98579.39;273394;1270;23034;-87
2023/06/30 08:58:01;;;;;;;;;;;;;;;25.58;64.55;98575.31;273352;1270;22471;-87
2023/06/30 09:04:04;;;;;;;4.30;2.00;;;;;;;25.62;63.69;98571.28;273544;1269;22377;-87
2023/06/30 09:10:09;;;;;;;4.20;2.10;;;;;;;25.69;62.70;98563.41;273571;1269;22197;-86
2023/06/30 09:16:39;;;;;;;4.30;2.00;;;;;;;25.87;62.11;98556.38;273406;1269;22444;-87
2023/06/30 09:22:41;;;;;;;5.00;1.90;;;;;;;26.00;61.15;98555.14;273392;1267;22360;-88
2023/06/30 09:28:44;;;;;;;2.00;1.40;;;;;;;26.09;59.84;98553.77;273002;1269;22402;-86
2023/06/30 09:34:45;;;;;;;4.50;1.80;;;;;;;26.19;58.19;98557.48;273703;1270;22161;-86
2023/06/30 09:41:27;;;;;;;3.30;1.70;;;;;;;26.54;57.59;98550.09;273850;1270;22174;-87
2023/06/30 09:47:31;;;;;;;2.60;1.90;;;;;;;26.95;57.06;98557.81;273160;1269;22250;-89
2023/06/30 09:53:37;;;;;;;4.10;1.70;;;;;;;27.44;56.34;98548.94;273780;1260;22314;-88
2023/06/30 09:59:39;;;;;;;2.30;1.60;;;;;;;27.42;55.17;98540.13;274032;1269;22255;-87
2023/06/30 10:06:35;;;;;;;2.10;1.40;;;;;;;27.16;54.15;98538.68;273557;1270;22987;-86
2023/06/30 10:13:42;;;;;;;5.10;1.80;;;;;;;27.55;53.41;98533.48;273475;1267;22185;-87
2023/06/30 10:20:12;;;;;;;4.60;1.50;;;;;;;28.12;52.66;98528.14;274023;1275;22364;-87
2023/06/30 10:26:29;;;;;;;3.80;1.40;;;;;;;28.65;52.57;98518.75;274119;1275;22211;-87
2023/06/30 10:33:04;;;;;;;1.80;1.40;;;;;;;29.06;51.54;98512.84;273324;1254;22950;-88
2023/06/30 10:41:04;;;;;;;4.20;1.90;;;;;;;29.21;50.21;98505.30;271573;1267;22977;-88
2023/06/30 10:47:50;;;;;;;4.60;1.70;;;;;;;29.34;49.04;98501.19;270609;1277;22547;-88
2023/06/30 10:55:36;;;;;;;3.70;1.60;;;;;;;29.44;47.84;98491.91;272252;1282;22336;-88
2023/06/30 11:03:21;;;;;;;2.70;1.40;;;;;;;29.52;47.18;98490.25;270699;1286;22443;-86
2023/06/30 11:10:34;;;;;;;2.50;1.60;;;;;;;29.06;46.98;98490.19;267515;1287;22650;-87
2023/06/30 11:24:55;;;;;;;3.70;1.80;;;;;;;27.84;47.98;98486.34;269056;1275;23354;-88
2023/06/30 11:32:27;;;;;;;1.60;1.20;;;;;;;27.27;48.23;98483.02;271064;1269;22184;-88
2023/06/30 11:39:57;;;;;;;2.40;1.90;;;;;;;27.15;49.14;98482.10;272718;1269;22212;-89
2023/06/30 11:46:37;;;;;;;3.00;1.50;;;;;;;27.14;48.71;98471.27;273967;1269;22530;-86
2023/06/30 11:54:15;;;;;;;2.00;1.50;;;;;;;27.19;48.99;98472.70;273421;1269;22118;-87
2023/06/30 12:08:53;;;;;;;2.60;1.70;;;;;;;26.98;50.10;98477.00;270857;1270;22531;-88
2023/06/30 12:15:16;;;;;;;1.80;1.60;;;;;;;26.99;50.91;98471.03;273614;1270;22894;-89
2023/06/30 12:23:12;;;;;;;3.40;1.60;;;;;;;27.06;49.89;98463.95;272521;1283;22230;-87
2023/06/30 12:31:00;;;;;;;2.40;1.60;;;;;;;27.22;49.78;98461.67;271036;1278;22233;-86
2023/06/30 12:37:44;;;;;;;2.30;1.40;;;;;;;27.32;49.35;98453.24;271147;1283;23290;-88
2023/06/30 12:44:51;;;;;;;3.40;1.40;;;;;;;27.43;48.92;98448.58;271400;1289;22295;-86
2023/06/30 12:51:40;;;;;;;4.40;1.60;;;;;;;27.38;48.70;98444.19;269572;1281;22312;-88
2023/06/30 12:58:51;;;;;;;4.20;1.60;;;;;;;27.25;49.58;98435.98;271043;1275;22198;-86
2023/06/30 13:13:41;;;;;;;3.20;1.60;;;;;;;27.12;48.53;98421.96;273895;1274;22570;-86
2023/06/30 13:20:28;;;;;;;3.30;1.90;;;;;;;26.84;49.31;98415.10;274066;1269;22147;-87
2023/06/30 13:27:38;;;;;;;2.70;1.70;;;;;;;26.78;49.67;98411.73;270645;1259;23004;-88
2023/06/30 13:35:13;;;;;;;3.70;2.00;;;;;;;26.80;49.12;98399.80;271445;1265;22414;-88
2023/06/30 13:41:15;;;;;;;4.70;2.00;;;;;;;26.93;49.87;98393.48;268189;1274;23286;-89
2023/06/30 13:47:17;;;;;;;3.50;1.90;;;;;;;27.06;50.21;98384.48;271206;1273;22222;-87
2023/06/30 13:53:19;;;;;;;2.40;1.80;;;;;;;26.99;50.42;98380.80;272460;1273;22380;-87
2023/06/30 13:59:21;;;;;;;3.30;1.90;;;;;;;26.82;50.88;98377.15;272580;1273;22450;-87
2023/06/30 14:05:23;;;;;;;5.00;2.10;;;;;;;26.66;51.40;98371.34;273313;1264;23093;-89
2023/06/30 14:11:25;;;;;;;3.00;1.70;;;;;;;26.55;51.90;98366.54;273434;1267;22956;-87
2023/06/30 14:17:26;;;;;;;3.60;2.30;;;;;;;26.56;51.90;98358.83;273292;1261;23256;-85
2023/06/30 14:23:28;;;;;;;3.50;2.10;;;;;;;26.51;52.15;98350.52;273283;1267;22374;-87
2023/06/30 14:29:30;;;;;;;3.30;2.40;;;;;;;26.49;52.43;98343.61;273390;1269;23162;-87
2023/06/30 14:35:32;;;;;;;4.10;2.00;;;;;;;26.51;52.61;98345.02;272013;1268;22330;-86
2023/06/30 14:41:34;;;;;;;3.30;2.00;;;;;;;26.51;53.25;98339.46;269151;1268;25431;-88
2023/06/30 14:47:36;;;;;;;2.90;1.90;;;;;;;26.40;52.38;98337.27;269140;1267;24115;-88
2023/06/30 15:02:03;;;;;;;2.70;2.30;;;;;;;26.08;52.33;98329.51;269974;1267;23313;-89
2023/06/30 15:08:06;;;;;;;3.50;2.00;;;;;;;25.97;52.55;98329.27;271694;1267;22275;-86
2023/06/30 15:14:09;;;;;;;3.80;2.40;;;;;;;25.89;52.69;98324.44;273574;1270;23539;-86
2023/06/30 15:20:18;;;;;;;2.90;2.20;;;;;;;25.89;52.30;98323.11;271123;1267;22588;-87
2023/06/30 15:26:20;;;;;;;3.80;2.00;;;;;;;25.85;53.02;98319.66;269834;1258;22540;-87
2023/06/30 15:32:21;;;;;;;2.60;2.00;;;;;;;25.79;53.65;98313.89;271616;1259;22406;-87
2023/06/30 15:38:23;;;;;;;5.80;2.40;;;;;;;25.75;53.75;98312.05;269988;1259;22942;-88
2023/06/30 15:44:25;;;;;;;2.80;2.00;;;;;;;25.70;53.85;98300.69;270322;1267;24263;-87
2023/06/30 15:50:27;;;;;;;3.90;2.40;;;;;;;25.67;54.49;98296.47;270992;1267;23986;-88
2023/06/30 15:56:29;;;;;;;4.30;2.50;;;;;;;25.62;54.59;98289.39;270418;1268;22534;-88
2023/06/30 16:02:31;;;;;;;5.30;2.20;;;;;;;25.62;53.55;98280.31;271466;1268;22316;-88
2023/06/30 16:08:40;;;;;;;3.20;2.60;;;;;;;25.71;53.43;98280.50;271493;1268;23175;-86
2023/06/30 16:14:41;;;;;;;2.90;1.90;;;;;;;25.71;53.59;98274.45;273336;1268;22377;-86
2023/06/30 16:20:43;;;;;;;4.40;2.20;;;;;;;25.65;53.49;98270.86;273525;1261;22389;-87
2023/06/30 16:26:49;;;;;;;5.00;2.30;;;;;;;25.64;53.44;98265.81;270215;1268;22533;-87
2023/06/30 16:32:52;;;;;;;8.70;2.90;;;;;;;25.66;53.59;98265.02;271859;1268;26280;-86
2023/06/30 16:38:54;;;;;;;3.60;2.60;;;;;;;25.61;54.03;98259.10;271365;1267;23447;-87
2023/06/30 16:44:56;;;;;;;3.80;2.20;;;;;;;25.59;53.89;98249.86;271039;1268;24391;-87
2023/06/30 16:50:57;;;;;;;3.00;2.40;;;;;;;25.66;53.83;98244.04;269784;1260;22386;-87
2023/06/30 16:56:59;;;;;;;8.30;2.30;;;;;;;25.63;54.08;98246.03;272644;1259;22614;-87
2023/06/30 17:03:01;;;;;;;4.90;1.90;;;;;;;25.52;54.22;98248.98;269915;1268;23814;-87
2023/06/30 17:09:03;;;;;;;3.90;2.70;;;;;;;25.38;53.81;98249.00;269716;1267;22386;-88
2023/06/30 17:15:09;;;;;;;2.60;1.80;;;;;;;25.21;53.62;98250.86;269072;1268;24286;-88
2023/06/30 17:21:11;;;;;;;3.30;2.30;;;;;;;24.97;53.86;98251.73;270569;1267;22533;-87
2023/06/30 17:27:12;;;;;;;3.30;2.40;;;;;;;24.77;54.05;98254.34;270580;1267;22552;-87
2023/06/30 17:33:14;;;;;;;10.80;3.00;;;;;;;24.63;54.16;98261.30;272054;1267;23376;-87
2023/06/30 17:39:26;;;;;;;4.20;2.50;;;;;;;24.51;54.35;98259.59;273309;1267;22467;-87
2023/06/30 17:45:28;;;;;;;6.30;2.70;;;;;;;24.39;54.79;98254.81;272541;1267;23417;-87
2023/06/30 17:51:29;;;;;;;4.30;2.90;;;;;;;24.30;55.04;98256.35;273313;1258;22374;-87
2023/06/30 17:57:31;;;;;;;5.30;2.60;;;;;;;24.22;55.59;98260.24;270975;1268;23839;-87
2023/06/30 18:03:33;;;;;;;6.30;3.20;;;;;;;24.14;55.90;98262.77;271687;1268;22908;-86
2023/06/30 18:09:37;;;;;;;5.10;3.50;;;;;;;24.02;56.88;98260.10;272472;1259;307109;-87
2023/06/30 18:15:39;;;;;;;6.60;4.40;;;;;;;23.88;57.96;98259.31;273147;1268;22443;-87
2023/06/30 18:21:42;;;;;;;7.80;5.20;;;;;;;23.78;58.53;98261.13;273434;1268;22183;-87
2023/06/30 18:27:44;;;;;;;7.90;5.30;;;;;;;23.68;59.22;98263.17;273287;1267;22204;-87
2023/06/30 18:33:46;;;;;;;8.10;5.20;;;;;;;23.58;59.85;98266.90;273477;1261;22850;-86
2023/06/30 18:39:47;;;;;;;8.30;5.30;;;;;;;23.47;60.35;98269.72;273396;1268;22323;-87
2023/06/30 18:45:51;;;;;;;11.80;5.10;;;;;;;23.35;61.08;98276.80;273253;1267;22390;-86
2023/06/30 18:51:53;;;;;;;4.60;4.00;;;;;;;23.23;61.51;98283.89;273430;1267;22476;-87
2023/06/30 18:57:55;;;;;;;11.00;4.70;;;;;;;23.12;62.32;98287.52;273448;1267;23214;-87
2023/06/30 19:03:57;;;;;;;8.60;4.90;;;;;;;23.00;62.90;98287.27;273491;1266;22445;-87
2023/06/30 19:09:58;;;;;;;10.30;6.40;;;;;;;22.89;63.65;98291.17;273268;1266;22981;-87
2023/06/30 19:16:00;;;;;;;6.90;6.20;;;;;;;22.78;64.02;98288.04;273464;1267;22218;-88
2023/06/30 19:22:02;;;;;;;6.60;5.20;;;;;;;22.67;64.56;98287.56;272372;1266;22213;-87
2023/06/30 19:28:04;;;;;;;8.30;5.10;;;;;;;22.55;64.78;98290.93;273460;1266;23190;-87
2023/06/30 19:34:06;;;;;;;7.20;4.80;;;;;;;22.37;65.39;98292.40;273367;1267;22367;-87
2023/06/30 19:40:10;;;;;;;9.10;6.70;;;;;;;22.18;66.16;98293.08;271541;1267;23230;-88
2023/06/30 19:46:12;;;;;;;10.90;8.00;;;;;;;22.01;66.97;98290.77;271735;1268;22524;-87
2023/06/30 19:52:13;;;;;;;11.50;8.10;;;;;;;21.86;68.12;98294.48;271195;1266;23117;-86
2023/06/30 19:58:15;;;;;;;24.20;12.50;;;;;;;21.65;68.89;98296.98;273249;1268;24733;-87
2023/06/30 20:04:17;;;;;;;21.10;12.90;;;;;;;21.46;69.88;98297.89;273454;1268;22920;-86
2023/06/30 20:10:19;;;;;;;23.10;13.70;;;;;;;21.33;70.90;98298.94;273322;1261;22361;-86
2023/06/30 20:16:20;;;;;;;26.00;15.80;;;;;;;21.24;71.90;98302.48;273018;1267;22550;-87
2023/06/30 20:22:30;;;;;;;25.90;16.40;;;;;;;21.17;72.97;98303.92;272021;1269;22423;-86
2023/06/30 20:28:34;;;;;;;29.20;16.60;;;;;;;21.08;73.68;98303.77;270940;1259;23022;-86
2023/06/30 20:34:35;;;;;;;36.10;20.40;;;;;;;20.99;74.31;98306.27;273609;1268;22219;-86
2023/06/30 20:40:46;;;;;;;41.30;19.60;;;;;;;20.93;74.81;98304.30;273540;1268;22222;-86
2023/06/30 20:46:48;;;;;;;26.30;15.70;;;;;;;20.86;75.64;98302.11;273592;1256;22188;-87
2023/06/30 20:52:53;;;;;;;22.30;14.40;;;;;;;20.81;76.38;98301.45;273971;1272;22175;-86
2023/06/30 20:59:06;;;;;;;17.10;10.10;;;;;;;20.78;77.45;98302.26;273304;1267;24063;-86
2023/06/30 21:05:07;;;;;;;17.60;9.90;;;;;;;20.74;77.76;98305.38;273574;1267;22469;-86
2023/06/30 21:11:09;;;;;;;20.90;13.30;;;;;;;20.71;78.35;98311.55;273292;1263;25170;-88
2023/06/30 21:17:11;;;;;;;16.40;9.60;;;;;;;20.57;78.77;98332.52;274088;1257;22193;-86
2023/06/30 21:23:12;;;;;;;13.70;8.90;;;;;;;20.52;78.67;98336.02;270742;1268;22517;-87
2023/06/30 21:29:14;;;;;;;13.00;7.60;;;;;;;20.54;78.53;98342.71;270004;1268;22550;-86
2023/06/30 21:35:17;;;;;;;11.60;6.50;;;;;;;20.49;79.18;98332.44;270378;1267;22545;-86
2023/06/30 21:41:19;;;;;;;10.10;6.00;;;;;;;20.29;79.71;98327.49;270243;1266;22560;-87
2023/06/30 21:47:20;;;;;;;7.50;5.70;;;;;;;20.14;80.78;98334.33;272011;1272;22275;-88
2023/06/30 21:53:22;;;;;;;8.50;6.00;;;;;;;20.01;81.50;98329.23;274091;1271;22674;-88
2023/06/30 21:59:49;;;;;;;9.50;5.70;;;;;;;19.91;82.16;98324.95;273845;1270;22370;-88
2023/06/30 22:05:51;;;;;;;12.30;7.80;;;;;;;19.71;82.91;98318.52;273082;1268;22648;-87
2023/06/30 22:11:55;;;;;;;10.50;7.00;;;;;;;19.68;82.18;98312.69;271113;1267;22271;-88
2023/06/30 22:17:56;;;;;;;7.60;5.50;;;;;;;19.71;81.36;98315.05;273329;1267;23951;-87
2023/06/30 22:23:58;;;;;;;9.90;6.20;;;;;;;19.74;81.70;98330.80;270777;1268;23004;-86
2023/06/30 22:30:00;;;;;;;7.60;5.00;;;;;;;19.74;82.46;98330.16;270312;1268;22548;-87
2023/06/30 22:36:03;;;;;;;7.00;4.70;;;;;;;19.70;82.11;98325.48;269533;1268;25313;-88
2023/06/30 22:42:05;;;;;;;6.60;4.90;;;;;;;19.66;81.68;98325.20;271253;1268;22532;-88
2023/06/30 22:48:07;;;;;;;7.30;4.90;;;;;;;19.67;82.94;98326.83;272384;1267;23702;-88
2023/06/30 22:54:08;;;;;;;5.10;4.10;;;;;;;19.62;82.38;98324.55;272944;1269;22824;-88
2023/06/30 23:00:12;;;;;;;7.20;4.40;;;;;;;19.62;82.98;98324.27;271033;1265;23682;-87
2023/06/30 23:06:14;;;;;;;6.90;4.00;;;;;;;19.57;83.43;98337.02;273629;1269;22355;-87
2023/06/30 23:12:16;;;;;;;7.20;4.10;;;;;;;19.49;83.13;98342.48;273458;1268;23239;-87
2023/06/30 23:18:19;;;;;;;5.40;3.40;;;;;;;19.44;83.66;98339.78;273582;1269;22497;-87
2023/06/30 23:24:22;;;;;;;5.10;4.20;;;;;;;19.46;84.16;98338.05;270284;1267;23454;-88
2023/06/30 23:30:27;;;;;;;5.50;4.60;;;;;;;19.43;83.96;98336.82;270835;1268;22639;-88
2023/06/30 23:36:49;;;;;;;4.80;4.30;;;;;;;19.43;84.98;98330.61;273396;1267;22403;-87
2023/06/30 23:42:54;;;;;;;7.50;4.00;;;;;;;19.36;85.12;98324.45;270392;1257;22521;-88
2023/06/30 23:49:01;;;;;;;5.20;3.80;;;;;;;19.30;85.08;98327.27;270290;1267;23207;-88
2023/06/30 23:55:03;;;;;;;5.40;3.60;;;;;;;19.30;85.57;98331.80;271799;1267;23544;-87
